Time;durP1;ratioP1;P1;durP2;ratioP2;P2;SDS_P1;SDS_P2;PMS_P1;PMS_P2;Temp;Humidity;BMP_temperature;BMP_pressure;BME280_temperature;BME280_humidity;BME280_pressure;Samples;Min_cycle;Max_cycle;Signal;HPM_P1;HPM_P2
2022/03/17 00:00:00;;;;;;;7.50;4.63;;;6.20;99.90;;;;;;5069016;28;20193;-60
2022/03/17 00:02:44;;;;;;;6.60;3.93;;;6.30;99.90;;;;;;5068085;28;20281;-55
2022/03/17 00:05:28;;;;;;;8.27;5.03;;;6.30;99.90;;;;;;5071104;28;20227;-54
2022/03/17 00:08:12;;;;;;;7.13;4.73;;;6.20;99.90;;;;;;5066341;28;20258;-51
2022/03/17 00:10:57;;;;;;;4.60;4.00;;;6.20;99.90;;;;;;5069173;28;20317;-57
2022/03/17 00:13:42;;;;;;;8.87;4.67;;;6.20;99.90;;;;;;5071350;28;20216;-49
2022/03/17 00:16:26;;;;;;;9.37;4.73;;;6.10;99.90;;;;;;5066267;28;20240;-51
2022/03/17 00:19:10;;;;;;;11.17;5.37;;;6.00;99.90;;;;;;5070135;28;20246;-48
2022/03/17 00:21:55;;;;;;;7.03;4.33;;;6.00;99.90;;;;;;5069669;28;20197;-48
2022/03/17 00:24:39;;;;;;;10.10;5.07;;;5.90;99.90;;;;;;5067207;28;20197;-55
2022/03/17 00:27:24;;;;;;;7.53;5.27;;;5.90;99.90;;;;;;5070066;28;20185;-46
2022/03/17 00:30:08;;;;;;;4.97;4.23;;;5.80;99.90;;;;;;5067927;28;20197;-53
2022/03/17 00:32:52;;;;;;;5.70;4.17;;;5.80;99.90;;;;;;5067804;28;20238;-50
2022/03/17 00:35:38;;;;;;;6.37;5.13;;;5.70;99.90;;;;;;5070839;28;20263;-47
2022/03/17 00:38:23;;;;;;;9.37;4.43;;;5.70;99.90;;;;;;5046689;28;20201;-50
2022/03/17 00:41:07;;;;;;;5.07;3.97;;;5.50;99.90;;;;;;5063417;28;20205;-47
2022/03/17 00:43:51;;;;;;;7.67;3.67;;;5.60;99.90;;;;;;5069642;28;20199;-53
2022/03/17 00:46:36;;;;;;;8.03;4.70;;;5.50;99.90;;;;;;5065317;28;20189;-48
2022/03/17 00:49:21;;;;;;;5.40;4.77;;;5.50;99.90;;;;;;5070795;28;20196;-49
2022/03/17 00:52:11;;;;;;;7.53;4.57;;;5.50;99.90;;;;;;5069242;28;20193;-54
2022/03/17 00:54:55;;;;;;;7.67;4.20;;;5.40;99.90;;;;;;5066322;28;20201;-54
2022/03/17 00:57:39;;;;;;;7.73;5.03;;;5.40;99.90;;;;;;5070312;28;20207;-53
2022/03/17 01:00:24;;;;;;;6.13;3.70;;;5.40;99.90;;;;;;5068318;28;20200;-51
2022/03/17 01:03:08;;;;;;;5.70;3.97;;;5.40;99.90;;;;;;5067161;28;20228;-50
2022/03/17 01:05:54;;;;;;;6.27;4.93;;;5.30;99.90;;;;;;5069677;28;20230;-48
2022/03/17 01:08:39;;;;;;;7.97;5.23;;;5.30;99.90;;;;;;5066140;28;20281;-62
2022/03/17 01:11:23;;;;;;;7.40;5.00;;;5.30;99.90;;;;;;5068495;28;20216;-61
2022/03/17 01:14:07;;;;;;;6.93;4.27;;;5.30;99.90;;;;;;5070046;28;20204;-61
2022/03/17 01:16:52;;;;;;;7.60;5.10;;;5.30;99.90;;;;;;5065945;28;20247;-50
2022/03/17 01:19:37;;;;;;;6.40;4.57;;;5.30;99.90;;;;;;5070595;28;20260;-51
2022/03/17 01:22:23;;;;;;;9.40;5.53;;;5.30;99.90;;;;;;5070396;28;20184;-62
2022/03/17 01:25:08;;;;;;;7.93;5.07;;;5.30;99.90;;;;;;5067356;28;20193;-52
2022/03/17 01:27:52;;;;;;;9.70;5.40;;;5.30;99.90;;;;;;5070295;28;20208;-57
2022/03/17 01:30:37;;;;;;;7.50;3.97;;;5.30;99.90;;;;;;5069220;28;20278;-63
2022/03/17 01:33:21;;;;;;;7.83;4.97;;;5.30;99.90;;;;;;5068073;28;20189;-57
2022/03/17 01:36:06;;;;;;;5.50;4.60;;;5.30;99.90;;;;;;5069840;28;20216;-57
2022/03/17 01:38:50;;;;;;;7.67;4.83;;;5.30;99.90;;;;;;5066508;28;20361;-47
2022/03/17 01:41:34;;;;;;;10.60;5.10;;;5.20;99.90;;;;;;5069145;28;20334;-55
2022/03/17 01:44:18;;;;;;;6.67;4.60;;;5.20;99.90;;;;;;5069896;28;20197;-60
2022/03/17 01:50:17;;;;;;;6.70;5.23;;;5.10;99.90;;;;;;5084476;28;20201;-62
2022/03/17 01:53:03;;;;;;;7.20;5.57;;;5.10;99.90;;;;;;5069771;28;20212;-54
2022/03/17 01:55:48;;;;;;;6.87;4.40;;;5.10;99.90;;;;;;5066263;28;20293;-49
2022/03/17 01:58:34;;;;;;;8.50;4.90;;;5.10;99.90;;;;;;5053014;28;20229;-57
2022/03/17 02:01:18;;;;;;;10.43;4.17;;;5.10;99.90;;;;;;5052595;28;20201;-61
2022/03/17 02:04:03;;;;;;;11.87;5.47;;;5.00;99.90;;;;;;5048898;28;20382;-53
2022/03/17 02:06:48;;;;;;;6.60;4.47;;;5.00;99.90;;;;;;5061211;28;20201;-58
2022/03/17 02:09:33;;;;;;;10.83;5.90;;;4.90;99.90;;;;;;5070710;28;20185;-63
2022/03/17 02:15:26;;;;;;;8.13;4.57;;;4.80;99.90;;;;;;5088138;28;20242;-58
2022/03/17 02:18:11;;;;;;;10.33;5.67;;;4.70;99.90;;;;;;5070656;28;20205;-63
2022/03/17 02:20:59;;;;;;;5.37;4.17;;;4.60;99.90;;;;;;5069963;28;20240;-58
2022/03/17 02:26:50;;;;;;;5.53;5.03;;;4.60;99.90;;;;;;5086045;28;20208;-62
2022/03/17 02:29:35;;;;;;;6.47;3.70;;;4.60;99.90;;;;;;5069939;28;20232;-54
2022/03/17 02:32:20;;;;;;;9.10;4.97;;;4.60;99.90;;;;;;5072312;28;20206;-46
2022/03/17 02:35:11;;;;;;;9.23;4.83;;;4.60;99.90;;;;;;5068509;28;20203;-57
2022/03/17 02:37:55;;;;;;;5.90;4.70;;;4.60;99.90;;;;;;5070027;28;20258;-55
2022/03/17 02:40:44;;;;;;;4.10;3.70;;;4.50;99.90;;;;;;5073088;28;20240;-57
2022/03/17 02:43:28;;;;;;;13.07;5.40;;;4.60;99.90;;;;;;5069459;28;20204;-56
2022/03/17 02:46:12;;;;;;;6.23;4.67;;;4.50;99.90;;;;;;5071038;28;20288;-47
2022/03/17 02:48:56;;;;;;;5.33;4.67;;;4.50;99.90;;;;;;5071980;28;20216;-49
2022/03/17 02:51:42;;;;;;;6.60;4.37;;;4.50;99.90;;;;;;5068231;28;20232;-51
2022/03/17 02:54:27;;;;;;;7.73;5.23;;;4.50;99.90;;;;;;5075272;28;20206;-50
2022/03/17 02:57:11;;;;;;;7.43;5.07;;;4.50;99.90;;;;;;5080079;28;20216;-57
2022/03/17 02:59:55;;;;;;;9.27;5.43;;;4.50;99.90;;;;;;5081909;28;20204;-49
2022/03/17 03:02:41;;;;;;;9.57;5.43;;;4.50;99.90;;;;;;5078217;28;20193;-46
2022/03/17 03:05:26;;;;;;;7.40;4.40;;;4.50;99.90;;;;;;5076687;28;20189;-46
2022/03/17 03:08:12;;;;;;;5.80;4.87;;;4.50;99.90;;;;;;5077327;28;20215;-51
2022/03/17 03:10:59;;;;;;;9.97;5.10;;;4.50;99.90;;;;;;5077484;28;20305;-51
2022/03/17 03:13:45;;;;;;;8.60;4.90;;;4.40;99.90;;;;;;5075872;28;20208;-50
2022/03/17 03:16:30;;;;;;;6.53;5.20;;;4.30;99.90;;;;;;5079015;28;20361;-48
2022/03/17 03:19:15;;;;;;;8.77;5.53;;;4.30;99.90;;;;;;5076482;28;20192;-48
2022/03/17 03:21:59;;;;;;;8.90;5.90;;;4.20;99.90;;;;;;5074550;28;20649;-47
2022/03/17 03:24:45;;;;;;;10.43;5.60;;;4.30;99.90;;;;;;5078011;28;20353;-51
2022/03/17 03:27:30;;;;;;;8.03;5.63;;;4.20;99.90;;;;;;5076478;28;20247;-54
2022/03/17 03:30:15;;;;;;;6.87;5.00;;;4.20;99.90;;;;;;5077220;28;20219;-53
2022/03/17 03:32:59;;;;;;;5.20;4.70;;;4.20;99.90;;;;;;5079506;28;20203;-48
2022/03/17 03:39:02;;;;;;;8.70;5.30;;;4.20;99.90;;;;;;4978021;28;20701;-52
2022/03/17 03:41:46;;;;;;;9.63;5.40;;;4.20;99.90;;;;;;4984374;28;20204;-49
2022/03/17 03:44:31;;;;;;;9.77;5.83;;;4.10;99.90;;;;;;4981190;28;20227;-50
2022/03/17 03:47:16;;;;;;;5.57;4.77;;;4.10;99.90;;;;;;4980489;28;20323;-50
2022/03/17 03:50:01;;;;;;;7.10;5.43;;;4.00;99.90;;;;;;4982107;28;20199;-47
2022/03/17 03:52:45;;;;;;;9.03;6.00;;;4.00;99.90;;;;;;4979278;28;20352;-53
2022/03/17 03:55:30;;;;;;;13.93;6.93;;;4.00;99.90;;;;;;4981080;28;20216;-54
2022/03/17 03:58:15;;;;;;;6.97;5.33;;;4.00;99.90;;;;;;4983323;28;20219;-47
2022/03/17 04:00:59;;;;;;;5.83;5.13;;;4.00;99.90;;;;;;4979042;28;20264;-47
2022/03/17 04:03:44;;;;;;;10.10;6.50;;;4.20;99.90;;;;;;4981227;28;20200;-56
2022/03/17 04:06:29;;;;;;;8.50;5.90;;;4.20;99.90;;;;;;4981438;28;20237;-51
2022/03/17 04:09:15;;;;;;;7.70;5.10;;;4.40;99.90;;;;;;4979257;28;20200;-53
2022/03/17 04:12:00;;;;;;;11.10;6.13;;;4.20;99.90;;;;;;4970978;28;20273;-53
2022/03/17 04:14:44;;;;;;;8.87;6.50;;;4.20;99.90;;;;;;5044049;28;20201;-57
2022/03/17 04:17:28;;;;;;;8.03;5.37;;;4.10;99.90;;;;;;5074240;28;20189;-45
2022/03/17 04:20:13;;;;;;;8.70;6.33;;;4.20;99.90;;;;;;5080167;28;20374;-50
2022/03/17 04:22:57;;;;;;;11.20;5.07;;;4.30;99.90;;;;;;5077164;28;20208;-55
2022/03/17 04:25:41;;;;;;;8.20;5.93;;;4.40;99.90;;;;;;5075568;28;20185;-54
2022/03/17 04:28:26;;;;;;;12.03;5.50;;;4.50;99.90;;;;;;5078073;28;20192;-51
2022/03/17 04:31:11;;;;;;;41.40;18.07;;;4.40;99.90;;;;;;5074177;28;20249;-48
2022/03/17 04:33:56;;;;;;;12.70;6.40;;;4.30;99.90;;;;;;5078437;28;20219;-53
2022/03/17 04:36:41;;;;;;;9.87;6.23;;;4.50;99.90;;;;;;5074018;28;20270;-52
2022/03/17 04:39:26;;;;;;;7.27;4.80;;;4.50;99.90;;;;;;5073327;28;20320;-57
2022/03/17 04:42:11;;;;;;;7.73;4.73;;;4.70;99.90;;;;;;5079424;28;20249;-48
2022/03/17 04:44:56;;;;;;;9.50;5.67;;;4.70;99.90;;;;;;5074790;28;20195;-55
2022/03/17 04:47:40;;;;;;;6.20;4.73;;;4.70;99.90;;;;;;5071247;28;20185;-49
2022/03/17 04:50:25;;;;;;;13.20;6.20;;;4.80;99.90;;;;;;5077354;28;20200;-52
2022/03/17 04:53:30;;;;;;;11.97;6.23;;;4.70;99.90;;;;;;5079036;28;20199;-57
2022/03/17 04:56:18;;;;;;;7.60;5.43;;;4.60;99.90;;;;;;5073698;28;20236;-49
2022/03/17 04:59:03;;;;;;;10.17;5.37;;;4.50;99.90;;;;;;5076856;28;20193;-52
2022/03/17 05:01:47;;;;;;;6.53;5.10;;;4.30;99.90;;;;;;5072881;28;20204;-57
2022/03/17 05:04:32;;;;;;;7.63;5.57;;;4.40;99.90;;;;;;5077760;28;20184;-52
2022/03/17 05:07:17;;;;;;;7.77;5.83;;;4.40;99.90;;;;;;5079222;28;20204;-49
2022/03/17 05:10:02;;;;;;;9.17;6.20;;;4.30;99.90;;;;;;5071574;28;20251;-49
2022/03/17 05:12:47;;;;;;;10.20;5.93;;;4.40;99.90;;;;;;5085184;28;20191;-52
2022/03/17 05:15:34;;;;;;;9.43;5.30;;;4.60;99.90;;;;;;5073711;28;20236;-55
2022/03/17 05:18:20;;;;;;;8.97;4.80;;;4.50;99.90;;;;;;5072493;28;20393;-56
2022/03/17 05:21:05;;;;;;;8.07;5.60;;;4.50;99.90;;;;;;5079435;28;20199;-59
2022/03/17 05:23:49;;;;;;;9.43;5.27;;;4.30;99.90;;;;;;5073960;28;20288;-61
2022/03/17 05:26:34;;;;;;;8.23;5.40;;;4.20;99.90;;;;;;5072042;28;20193;-52
2022/03/17 05:29:18;;;;;;;7.30;5.13;;;4.30;99.90;;;;;;5076308;28;20579;-60
2022/03/17 05:32:02;;;;;;;8.27;5.80;;;4.30;99.90;;;;;;5078217;28;20188;-54
2022/03/17 05:34:47;;;;;;;9.87;4.67;;;4.40;99.90;;;;;;5082531;28;20196;-52
2022/03/17 05:37:31;;;;;;;6.60;4.90;;;4.30;99.90;;;;;;5077908;28;20281;-56
2022/03/17 05:40:18;;;;;;;8.20;5.80;;;4.30;99.90;;;;;;5068510;28;20358;-52
2022/03/17 05:43:08;;;;;;;7.80;4.93;;;4.20;99.90;;;;;;5070420;28;20181;-56
2022/03/17 05:45:53;;;;;;;5.83;4.90;;;4.20;99.90;;;;;;5072035;28;20242;-56
2022/03/17 05:48:40;;;;;;;7.90;5.37;;;4.30;99.90;;;;;;5068872;28;20204;-54
2022/03/17 05:51:24;;;;;;;8.67;4.60;;;4.30;99.90;;;;;;5071332;28;20189;-48
2022/03/17 05:54:10;;;;;;;6.60;4.93;;;4.20;99.90;;;;;;5070445;28;20232;-60
2022/03/17 05:56:54;;;;;;;8.47;4.53;;;4.20;99.90;;;;;;5068409;28;20366;-50
2022/03/17 05:59:40;;;;;;;10.00;5.67;;;4.20;99.90;;;;;;5075760;28;20204;-49
2022/03/17 06:02:25;;;;;;;9.37;5.93;;;4.20;99.90;;;;;;5068293;28;20270;-58
2022/03/17 06:05:11;;;;;;;9.97;5.27;;;4.20;99.90;;;;;;5067421;28;20185;-56
2022/03/17 06:08:00;;;;;;;7.77;5.07;;;4.30;99.90;;;;;;5069877;28;20228;-58
2022/03/17 06:10:45;;;;;;;7.77;5.77;;;4.40;99.90;;;;;;5067590;28;20220;-49
2022/03/17 06:13:29;;;;;;;12.13;6.73;;;4.40;99.90;;;;;;5055904;28;20209;-51
2022/03/17 06:16:14;;;;;;;10.43;5.17;;;4.40;99.90;;;;;;5069021;28;20274;-49
2022/03/17 06:18:58;;;;;;;7.67;5.47;;;4.50;99.90;;;;;;5068039;28;20184;-49
2022/03/17 06:21:44;;;;;;;8.33;5.87;;;4.50;99.90;;;;;;5072971;28;20313;-50
2022/03/17 06:24:29;;;;;;;7.33;4.53;;;4.50;99.90;;;;;;5071611;28;20188;-50
2022/03/17 06:27:13;;;;;;;9.00;6.00;;;4.50;99.90;;;;;;5071914;28;20212;-51
2022/03/17 06:29:57;;;;;;;9.77;5.20;;;4.50;99.90;;;;;;5070717;28;20197;-62
2022/03/17 06:32:44;;;;;;;9.27;5.60;;;4.60;99.90;;;;;;5063322;28;20197;-61
2022/03/17 06:35:30;;;;;;;9.83;6.77;;;4.60;99.90;;;;;;5069160;28;20283;-59
2022/03/17 06:38:15;;;;;;;10.77;6.10;;;4.70;99.90;;;;;;5071769;28;20277;-58
2022/03/17 06:40:59;;;;;;;9.63;5.30;;;4.80;99.90;;;;;;5066108;28;20239;-54
2022/03/17 06:43:44;;;;;;;11.20;6.03;;;4.80;99.90;;;;;;5064911;28;20732;-56
2022/03/17 06:46:29;;;;;;;6.97;4.50;;;4.90;99.90;;;;;;5072022;28;20188;-53
2022/03/17 06:49:14;;;;;;;7.43;5.13;;;4.80;99.90;;;;;;5065754;28;20212;-53
2022/03/17 06:51:59;;;;;;;7.60;6.10;;;4.80;99.90;;;;;;5069729;28;20220;-56
2022/03/17 06:54:44;;;;;;;10.57;6.53;;;4.90;99.90;;;;;;5070492;28;20188;-59
2022/03/17 06:57:29;;;;;;;7.93;4.87;;;4.90;99.90;;;;;;5067969;28;20200;-57
2022/03/17 07:00:15;;;;;;;5.67;4.57;;;5.00;99.90;;;;;;5070322;28;20204;-52
2022/03/17 07:03:00;;;;;;;8.00;4.57;;;5.00;99.90;;;;;;5062151;28;20209;-51
2022/03/17 07:05:46;;;;;;;10.90;5.33;;;5.20;99.90;;;;;;5067920;28;20212;-58
2022/03/17 07:08:31;;;;;;;9.63;5.97;;;5.20;99.90;;;;;;5071573;28;20185;-52
2022/03/17 07:11:16;;;;;;;11.23;6.93;;;5.20;99.90;;;;;;5065716;28;20247;-57
2022/03/17 07:14:00;;;;;;;11.70;6.50;;;5.20;99.90;;;;;;5065723;28;20189;-50
2022/03/17 07:16:45;;;;;;;10.80;6.57;;;5.40;99.90;;;;;;5075104;28;20274;-54
2022/03/17 07:19:30;;;;;;;9.07;5.30;;;5.40;99.90;;;;;;5069184;28;20192;-49
2022/03/17 07:22:14;;;;;;;7.07;5.10;;;5.50;99.90;;;;;;5066586;28;20185;-45
2022/03/17 07:24:59;;;;;;;10.30;6.00;;;5.60;99.90;;;;;;5069507;28;20188;-54
2022/03/17 07:27:45;;;;;;;8.80;6.30;;;5.60;99.90;;;;;;5065530;28;20289;-52
2022/03/17 07:30:31;;;;;;;8.93;6.20;;;5.60;99.90;;;;;;5072219;28;20264;-55
2022/03/17 07:33:16;;;;;;;8.10;5.73;;;5.60;99.90;;;;;;5062532;28;20224;-52
2022/03/17 07:36:00;;;;;;;13.37;6.23;;;5.80;99.90;;;;;;5064147;28;20260;-49
2022/03/17 07:38:44;;;;;;;5.83;4.20;;;5.60;99.90;;;;;;5070762;28;20245;-51
2022/03/17 07:41:29;;;;;;;8.70;5.93;;;5.60;99.90;;;;;;5066709;28;20302;-47
2022/03/17 07:44:15;;;;;;;12.27;5.63;;;5.80;99.90;;;;;;5062813;28;20213;-60
2022/03/17 07:47:00;;;;;;;7.97;5.17;;;6.10;99.90;;;;;;5068500;28;20250;-54
2022/03/17 07:49:46;;;;;;;10.00;6.03;;;6.30;99.90;;;;;;5068339;28;20292;-56
2022/03/17 07:52:31;;;;;;;9.77;5.23;;;6.10;99.90;;;;;;5067595;28;20231;-52
2022/03/17 07:55:17;;;;;;;11.80;6.43;;;6.20;99.90;;;;;;5064831;28;20193;-51
2022/03/17 07:58:01;;;;;;;10.03;5.53;;;6.30;99.90;;;;;;5065835;28;20274;-52
2022/03/17 08:00:46;;;;;;;9.83;6.20;;;6.40;99.90;;;;;;5068285;28;20193;-55
2022/03/17 08:03:31;;;;;;;10.73;5.63;;;6.50;99.90;;;;;;5061848;28;20197;-58
2022/03/17 08:06:16;;;;;;;10.40;6.23;;;6.60;99.90;;;;;;5065742;28;20197;-48
2022/03/17 08:09:00;;;;;;;8.13;5.67;;;6.60;99.90;;;;;;5066539;28;20208;-50
2022/03/17 08:11:47;;;;;;;10.07;5.70;;;6.80;99.90;;;;;;5065819;28;20196;-52
2022/03/17 08:14:32;;;;;;;11.47;6.13;;;6.90;99.90;;;;;;5066343;28;20213;-46
2022/03/17 08:17:16;;;;;;;11.33;5.83;;;7.10;99.90;;;;;;5068525;28;20239;-51
2022/03/17 08:20:02;;;;;;;9.87;5.70;;;7.20;99.90;;;;;;5064539;28;20231;-49
2022/03/17 08:22:48;;;;;;;11.50;5.77;;;7.10;99.90;;;;;;5064359;28;20277;-44
2022/03/17 08:25:32;;;;;;;8.00;4.80;;;7.10;99.90;;;;;;5067758;28;20201;-51
2022/03/17 08:28:20;;;;;;;8.60;6.03;;;7.40;99.90;;;;;;5063788;28;20192;-53
2022/03/17 08:31:04;;;;;;;11.50;5.50;;;7.50;99.90;;;;;;5066514;28;20212;-54
2022/03/17 08:33:50;;;;;;;12.37;6.67;;;7.40;99.90;;;;;;5061919;28;20251;-50
2022/03/17 08:36:34;;;;;;;12.40;6.20;;;7.50;99.90;;;;;;5062948;28;20234;-48
2022/03/17 08:39:19;;;;;;;12.53;6.53;;;7.50;99.90;;;;;;5067947;28;20322;-52
2022/03/17 08:42:03;;;;;;;11.47;6.47;;;7.70;99.90;;;;;;5064373;28;20305;-52
2022/03/17 08:44:48;;;;;;;11.67;6.80;;;7.80;99.90;;;;;;5067356;28;20267;-58
2022/03/17 08:50:41;;;;;;;11.97;6.80;;;8.20;99.90;;;;;;5081261;28;20207;-60
2022/03/17 08:53:26;;;;;;;9.50;5.93;;;8.20;99.90;;;;;;5060482;28;20238;-57
2022/03/17 08:56:10;;;;;;;10.60;6.97;;;8.30;99.90;;;;;;5072092;28;20227;-51
2022/03/17 08:58:54;;;;;;;12.47;6.87;;;8.50;99.90;;;;;;5062832;28;20251;-54
2022/03/17 09:01:39;;;;;;;9.27;6.43;;;8.60;99.90;;;;;;5067169;28;20192;-47
2022/03/17 09:04:23;;;;;;;13.30;6.67;;;8.70;99.90;;;;;;5064294;28;20196;-59
2022/03/17 09:07:08;;;;;;;10.93;7.30;;;8.70;99.90;;;;;;5063749;28;20266;-57
2022/03/17 09:09:52;;;;;;;15.13;7.27;;;8.40;99.90;;;;;;5069654;28;20274;-52
2022/03/17 09:12:38;;;;;;;10.83;6.57;;;8.40;99.90;;;;;;5062565;28;20208;-56
2022/03/17 09:15:30;;;;;;;12.20;6.83;;;8.60;99.90;;;;;;5065199;28;20247;-58
2022/03/17 09:18:15;;;;;;;12.90;7.57;;;8.70;99.90;;;;;;5070231;28;20204;-51
2022/03/17 09:21:03;;;;;;;14.27;6.50;;;8.80;99.90;;;;;;5063427;28;20240;-52
2022/03/17 09:23:47;;;;;;;13.57;6.37;;;9.10;99.90;;;;;;5061483;28;20239;-48
2022/03/17 09:26:32;;;;;;;19.60;6.57;;;9.30;99.90;;;;;;5064699;28;20193;-52
2022/03/17 09:29:16;;;;;;;13.40;6.77;;;9.60;99.90;;;;;;5061360;28;20197;-54
2022/03/17 09:32:00;;;;;;;9.87;6.23;;;9.40;99.90;;;;;;5063046;28;20196;-56
2022/03/17 09:34:45;;;;;;;13.23;6.90;;;9.40;99.90;;;;;;5065800;28;20307;-57
2022/03/17 09:37:30;;;;;;;11.60;6.93;;;9.60;99.90;;;;;;5062151;28;20248;-59
2022/03/17 09:40:14;;;;;;;11.20;7.10;;;9.50;99.90;;;;;;5067487;28;20268;-58
2022/03/17 09:46:07;;;;;;;14.57;7.50;;;9.90;99.90;;;;;;5078049;28;20228;-57
2022/03/17 09:48:53;;;;;;;10.70;7.03;;;10.00;99.90;;;;;;5067587;28;20194;-55
2022/03/17 09:51:39;;;;;;;11.03;6.90;;;10.20;99.90;;;;;;5065222;28;20651;-62
2022/03/17 09:54:24;;;;;;;13.70;6.93;;;10.30;99.90;;;;;;5060475;28;20189;-54
2022/03/17 09:57:09;;;;;;;12.90;7.03;;;10.40;99.90;;;;;;5066643;28;20305;-54
2022/03/17 09:59:56;;;;;;;14.90;8.63;;;10.60;99.90;;;;;;5062808;28;20200;-57
2022/03/17 10:02:40;;;;;;;12.77;7.27;;;10.80;99.90;;;;;;5059783;28;20216;-58
2022/03/17 10:05:26;;;;;;;11.90;7.60;;;10.90;99.90;;;;;;5067503;28;20188;-53
2022/03/17 10:08:10;;;;;;;13.80;8.30;;;11.20;99.90;;;;;;5062483;28;20193;-53
2022/03/17 10:10:54;;;;;;;16.33;7.80;;;10.90;99.90;;;;;;5068035;28;20184;-56
2022/03/17 10:13:48;;;;;;;13.53;7.67;;;11.10;99.90;;;;;;5066344;28;20178;-59
2022/03/17 10:16:33;;;;;;;16.03;8.00;;;11.20;99.90;;;;;;5061158;28;20229;-54
2022/03/17 10:19:31;;;;;;;13.10;7.43;;;11.20;99.90;;;;;;5073120;28;20335;-54
2022/03/17 10:22:15;;;;;;;12.07;7.33;;;11.30;99.90;;;;;;5066592;28;20203;-59
2022/03/17 10:25:00;;;;;;;14.90;8.23;;;11.40;99.90;;;;;;5066311;28;20199;-50
2022/03/17 10:27:45;;;;;;;12.33;7.07;;;11.40;99.90;;;;;;5070703;28;20235;-51
2022/03/17 10:30:35;;;;;;;12.20;7.47;;;11.70;99.90;;;;;;5068623;28;20223;-56
2022/03/17 10:33:21;;;;;;;14.50;8.27;;;11.60;99.90;;;;;;5061917;28;20193;-51
2022/03/17 10:36:16;;;;;;;11.83;6.87;;;11.80;99.90;;;;;;5069316;28;20216;-58
2022/03/17 10:39:08;;;;;;;13.27;7.77;;;11.90;99.90;;;;;;5065497;28;20283;-55
2022/03/17 10:41:53;;;;;;;15.53;9.63;;;12.10;99.90;;;;;;5064650;28;20193;-53
2022/03/17 10:44:40;;;;;;;14.40;8.83;;;12.20;99.10;;;;;;5067832;28;20185;-54
2022/03/17 10:47:30;;;;;;;20.80;11.43;;;12.30;98.60;;;;;;5066224;28;20197;-59
2022/03/17 10:50:19;;;;;;;14.77;8.20;;;12.30;98.70;;;;;;5067609;28;20231;-56
2022/03/17 10:53:03;;;;;;;13.83;7.17;;;12.50;98.40;;;;;;5063329;28;20192;-53
2022/03/17 10:55:49;;;;;;;10.40;6.47;;;12.40;97.70;;;;;;5068248;28;20232;-56
2022/03/17 10:58:41;;;;;;;11.73;6.80;;;12.40;97.90;;;;;;5069558;28;20254;-51
2022/03/17 11:01:42;;;;;;;12.30;6.23;;;12.10;97.40;;;;;;5063105;28;20216;-51
2022/03/17 11:04:27;;;;;;;10.63;6.23;;;12.00;97.80;;;;;;5091856;28;20211;-56
2022/03/17 11:07:14;;;;;;;12.83;7.00;;;12.20;98.10;;;;;;5068778;28;20272;-47
2022/03/17 11:10:06;;;;;;;11.67;6.97;;;12.30;97.40;;;;;;5067076;28;20260;-46
2022/03/17 11:12:52;;;;;;;12.37;7.20;;;12.40;97.60;;;;;;5062171;28;20196;-60
2022/03/17 11:15:38;;;;;;;13.60;7.43;;;12.30;98.00;;;;;;5069034;28;20255;-52
2022/03/17 11:18:24;;;;;;;11.83;6.63;;;12.30;97.70;;;;;;5069130;28;20231;-52
2022/03/17 11:21:12;;;;;;;11.33;7.07;;;12.10;98.00;;;;;;5065217;28;20228;-56
2022/03/17 11:24:04;;;;;;;12.20;6.53;;;12.10;97.50;;;;;;5066123;28;20291;-58
2022/03/17 11:26:52;;;;;;;13.00;6.70;;;12.00;97.40;;;;;;5096746;28;20221;-62
2022/03/17 11:29:48;;;;;;;9.60;6.57;;;12.20;97.40;;;;;;5064141;28;20270;-52
2022/03/17 11:32:34;;;;;;;11.83;6.40;;;12.30;97.10;;;;;;5063792;28;20322;-61
2022/03/17 11:35:19;;;;;;;8.40;5.20;;;12.20;97.40;;;;;;5066652;28;20250;-57
2022/03/17 11:38:13;;;;;;;11.33;6.40;;;12.30;97.10;;;;;;5065003;28;20262;-61
2022/03/17 11:41:15;;;;;;;9.53;6.00;;;12.40;96.90;;;;;;5069120;28;20219;-53
2022/03/17 11:44:01;;;;;;;8.07;5.40;;;12.40;96.60;;;;;;5063482;28;20193;-62
2022/03/17 11:46:46;;;;;;;9.03;5.33;;;12.60;96.20;;;;;;5065750;28;20201;-54
2022/03/17 11:49:44;;;;;;;7.80;5.33;;;12.60;96.00;;;;;;5068749;28;20255;-62
2022/03/17 11:52:28;;;;;;;17.33;5.70;;;12.70;95.40;;;;;;5064802;28;20197;-53
2022/03/17 11:55:41;;;;;;;6.73;5.13;;;12.70;95.00;;;;;;5066156;28;20188;-52
2022/03/17 11:58:37;;;;;;;10.90;6.00;;;13.00;95.20;;;;;;5069458;28;20216;-50
2022/03/17 12:01:28;;;;;;;11.83;5.67;;;13.10;94.70;;;;;;5068179;28;20258;-63
2022/03/17 12:04:31;;;;;;;10.47;6.10;;;13.00;95.30;;;;;;5088872;28;20220;-54
2022/03/17 12:07:20;;;;;;;9.53;6.03;;;13.20;94.80;;;;;;5067764;28;20193;-52
2022/03/17 12:10:05;;;;;;;11.57;6.27;;;13.00;94.20;;;;;;5067689;28;20201;-56
2022/03/17 12:12:49;;;;;;;8.30;5.30;;;12.90;94.30;;;;;;5063944;28;20242;-51
2022/03/17 12:15:39;;;;;;;10.30;6.10;;;12.80;94.20;;;;;;5070598;28;20196;-54
2022/03/17 12:18:23;;;;;;;8.57;4.70;;;12.80;94.20;;;;;;5069567;28;20185;-56
2022/03/17 12:21:08;;;;;;;10.57;5.30;;;12.90;94.20;;;;;;5068599;28;20243;-56
2022/03/17 12:23:53;;;;;;;9.10;6.27;;;12.90;94.20;;;;;;5067591;28;20197;-47
2022/03/17 12:26:38;;;;;;;11.70;5.20;;;12.90;94.00;;;;;;5068255;28;20197;-62
2022/03/17 12:29:26;;;;;;;8.53;5.30;;;13.00;93.80;;;;;;5067787;28;20286;-51
2022/03/17 12:32:14;;;;;;;13.87;6.33;;;12.90;93.70;;;;;;5070307;28;20197;-52
2022/03/17 12:34:59;;;;;;;10.77;5.60;;;12.80;93.90;;;;;;5065299;28;20271;-52
2022/03/17 12:37:44;;;;;;;10.97;5.10;;;12.70;93.70;;;;;;5068762;28;20205;-53
2022/03/17 12:40:42;;;;;;;10.27;5.90;;;12.80;93.90;;;;;;5067213;28;20236;-52
2022/03/17 12:43:33;;;;;;;8.93;5.27;;;12.80;93.60;;;;;;5064409;28;20209;-54
2022/03/17 12:46:17;;;;;;;10.47;5.60;;;12.70;93.60;;;;;;5067927;28;20185;-53
2022/03/17 12:49:11;;;;;;;10.93;6.03;;;12.70;93.70;;;;;;5068193;28;20205;-51
2022/03/17 12:52:11;;;;;;;13.20;6.30;;;12.70;94.00;;;;;;5061102;28;20210;-53
2022/03/17 12:55:02;;;;;;;9.67;6.10;;;12.70;93.40;;;;;;5068455;28;20200;-55
2022/03/17 12:57:47;;;;;;;11.00;6.00;;;12.70;93.40;;;;;;5072657;28;20216;-57
2022/03/17 13:00:33;;;;;;;13.00;7.47;;;12.80;93.10;;;;;;5066117;28;20212;-50
2022/03/17 13:03:21;;;;;;;14.23;6.47;;;12.80;93.00;;;;;;5063352;28;20236;-56
2022/03/17 13:09:11;;;;;;;6.37;4.73;;;12.70;92.80;;;;;;5079401;28;20228;-50
2022/03/17 13:15:15;;;;;;;10.10;5.80;;;12.90;93.10;;;;;;5083064;28;20248;-54
2022/03/17 13:18:02;;;;;;;11.97;7.27;;;12.80;93.90;;;;;;5064598;28;20321;-55
2022/03/17 13:20:53;;;;;;;13.17;7.17;;;12.50;96.60;;;;;;5067696;28;20215;-53
2022/03/17 13:23:37;;;;;;;14.30;7.50;;;12.50;97.50;;;;;;5063990;28;20193;-55
2022/03/17 13:26:23;;;;;;;9.50;6.67;;;12.50;97.90;;;;;;5064493;28;20223;-52
2022/03/17 13:29:13;;;;;;;11.80;7.93;;;12.50;98.10;;;;;;5068206;28;20212;-51
2022/03/17 13:31:58;;;;;;;11.53;6.73;;;12.30;98.20;;;;;;5065422;28;20247;-52
2022/03/17 13:34:42;;;;;;;12.43;6.67;;;12.10;98.30;;;;;;5062982;28;20208;-58
2022/03/17 13:37:44;;;;;;;10.43;7.17;;;12.20;98.30;;;;;;5068668;28;20232;-57
2022/03/17 13:41:00;;;;;;;13.60;6.67;;;11.90;98.50;;;;;;5064689;28;20232;-61
2022/03/17 13:43:44;;;;;;;17.90;8.70;;;12.00;98.60;;;;;;5058308;28;20204;-48
2022/03/17 13:46:37;;;;;;;13.80;7.83;;;12.00;98.60;;;;;;5066789;28;20181;-59
2022/03/17 13:49:27;;;;;;;11.37;7.37;;;12.00;98.40;;;;;;5065990;28;20259;-60
2022/03/17 13:52:11;;;;;;;13.97;7.30;;;12.00;98.40;;;;;;5064681;28;20204;-51
2022/03/17 13:54:56;;;;;;;18.03;9.00;;;11.90;98.30;;;;;;5071948;28;20283;-56
2022/03/17 13:57:42;;;;;;;10.13;7.10;;;11.90;98.70;;;;;;5075068;28;20212;-53
2022/03/17 14:00:32;;;;;;;13.43;7.03;;;11.90;98.60;;;;;;5077818;28;20208;-48
2022/03/17 14:03:23;;;;;;;12.57;7.27;;;11.80;98.80;;;;;;5071805;28;20240;-56
2022/03/17 14:06:15;;;;;;;14.93;7.23;;;11.70;99.10;;;;;;5070697;28;20329;-53
2022/03/17 14:09:12;;;;;;;12.23;7.30;;;11.60;99.50;;;;;;5070519;28;20222;-53
2022/03/17 14:11:56;;;;;;;13.93;6.93;;;11.70;99.50;;;;;;5071304;28;20246;-50
2022/03/17 14:14:41;;;;;;;13.40;8.30;;;11.90;99.60;;;;;;5069587;28;20196;-52
2022/03/17 14:17:26;;;;;;;14.70;8.40;;;12.00;99.70;;;;;;5070699;28;20282;-46
2022/03/17 14:20:11;;;;;;;13.27;7.27;;;12.00;99.90;;;;;;5072372;28;20197;-52
2022/03/17 14:25:59;;;;;;;13.40;7.50;;;11.90;99.90;;;;;;5086453;28;20200;-54
2022/03/17 14:28:43;;;;;;;12.63;6.73;;;11.80;99.90;;;;;;5073342;28;20235;-57
2022/03/17 14:31:30;;;;;;;15.33;7.17;;;11.80;99.90;;;;;;5066522;28;20196;-57
2022/03/17 14:34:15;;;;;;;15.83;7.67;;;11.70;99.90;;;;;;5070364;28;20243;-56
2022/03/17 14:37:01;;;;;;;12.60;7.10;;;11.60;99.90;;;;;;5071522;28;20266;-53
2022/03/17 14:39:46;;;;;;;11.37;7.37;;;11.60;99.90;;;;;;5063876;28;20220;-53
2022/03/17 14:42:31;;;;;;;11.27;6.67;;;11.30;99.90;;;;;;5069692;28;20188;-53
2022/03/17 14:45:15;;;;;;;16.90;7.43;;;11.40;99.90;;;;;;5068402;28;20188;-60
2022/03/17 14:48:00;;;;;;;16.70;7.37;;;11.60;99.90;;;;;;5066559;28;20197;-51
2022/03/17 14:50:44;;;;;;;12.50;6.67;;;11.60;99.90;;;;;;5070445;28;20205;-53
2022/03/17 14:53:33;;;;;;;16.33;7.73;;;11.60;99.90;;;;;;5069013;28;20185;-55